Time;durP1;ratioP1;P1;durP2;ratioP2;P2;SDS_P1;SDS_P2;PMS_P1;PMS_P2;Temp;Humidity;BMP_temperature;BMP_pressure;BME280_temperature;BME280_humidity;BME280_pressure;Samples;Min_cycle;Max_cycle;Signal;HPM_P1;HPM_P2
2022/05/27 00:02:52;;;;;;;9.30;4.60;;;15.70;99.90;;;;;;10492437;28;20667;-89
2022/05/27 00:07:54;;;;;;;5.30;3.60;;;16.50;99.90;;;;;;10467902;28;20233;-89
2022/05/27 00:12:57;;;;;;;4.83;4.43;;;16.30;99.90;;;;;;10488450;28;20230;-90
2022/05/27 00:18:00;;;;;;;4.80;4.40;;;16.80;99.90;;;;;;10492969;28;20650;-89
2022/05/27 00:23:03;;;;;;;6.23;4.23;;;16.80;99.90;;;;;;10490867;28;20218;-90
2022/05/27 00:28:06;;;;;;;4.70;4.30;;;17.90;99.90;;;;;;10489133;28;20613;-90
2022/05/27 00:33:10;;;;;;;4.53;4.13;;;18.80;98.50;;;;;;10458049;28;20214;-89
2022/05/27 00:38:13;;;;;;;4.10;3.70;;;18.70;97.20;;;;;;10449884;28;20735;-89
2022/05/27 00:43:16;;;;;;;5.83;5.33;;;18.60;97.30;;;;;;10458242;28;20292;-90
2022/05/27 00:48:21;;;;;;;4.97;4.47;;;18.60;97.70;;;;;;10469343;28;20290;-90
2022/05/27 00:53:32;;;;;;;4.85;4.43;;;19.20;96.30;;;;;;10492383;28;20279;-90
2022/05/27 00:58:46;;;;;;;5.18;4.32;;;19.20;95.80;;;;;;10491633;28;20246;-89
2022/05/27 01:03:49;;;;;;;5.10;4.18;;;19.10;95.50;;;;;;10489961;28;20241;-89
2022/05/27 01:08:53;;;;;;;6.40;3.87;;;18.70;96.10;;;;;;10491009;28;20291;-90
2022/05/27 01:14:07;;;;;;;7.43;4.00;;;18.10;97.10;;;;;;10474049;28;20285;-89
2022/05/27 01:25:02;;;;;;;4.27;3.40;;;15.80;99.90;;;;;;10489154;28;20297;-89
2022/05/27 01:30:18;;;;;;;4.57;3.83;;;15.60;99.90;;;;;;10452839;28;20198;-89
2022/05/27 01:36:06;;;;;;;11.87;4.20;;;15.40;99.90;;;;;;10455510;28;20222;-90
2022/05/27 01:41:16;;;;;;;5.30;3.60;;;15.30;99.90;;;;;;10479867;28;20209;-90
2022/05/27 01:46:26;;;;;;;10.40;3.90;;;15.10;99.90;;;;;;10497518;28;20239;-89
2022/05/27 01:52:06;;;;;;;4.43;3.80;;;15.10;99.90;;;;;;10499290;28;20206;-90
2022/05/27 01:57:30;;;;;;;6.33;3.97;;;15.00;99.90;;;;;;10459902;28;20290;-90
2022/05/27 02:02:37;;;;;;;4.97;3.67;;;15.00;99.90;;;;;;10487144;28;20255;-89
2022/05/27 02:07:51;;;;;;;7.53;4.37;;;14.90;99.90;;;;;;10498988;28;20258;-90
2022/05/27 02:13:16;;;;;;;8.33;4.70;;;14.90;99.90;;;;;;10497873;28;20248;-89
2022/05/27 02:18:28;;;;;;;10.20;4.47;;;14.70;99.90;;;;;;10495154;28;20268;-89
2022/05/27 02:23:37;;;;;;;7.70;5.00;;;14.50;99.90;;;;;;10497536;28;20228;-90
2022/05/27 02:28:44;;;;;;;4.93;4.50;;;14.30;99.90;;;;;;10471329;28;20219;-89
2022/05/27 02:39:12;;;;;;;5.63;4.80;;;13.70;99.90;;;;;;10497291;28;20210;-90
2022/05/27 02:44:45;;;;;;;8.93;5.27;;;13.60;99.90;;;;;;10550121;28;20237;-90
2022/05/27 02:49:54;;;;;;;8.50;5.30;;;13.60;99.90;;;;;;10550953;28;20385;-90
2022/05/27 02:55:21;;;;;;;7.43;5.63;;;13.50;99.90;;;;;;10551682;28;20187;-90
2022/05/27 03:00:27;;;;;;;6.40;5.43;;;13.40;99.90;;;;;;10496396;28;20206;-90
2022/05/27 03:05:51;;;;;;;9.97;5.70;;;13.40;99.90;;;;;;10509410;28;20187;-90
2022/05/27 03:11:02;;;;;;;5.70;5.10;;;13.40;99.90;;;;;;10509182;28;20183;-90
2022/05/27 03:16:16;;;;;;;5.57;5.10;;;13.30;99.90;;;;;;10509274;28;20180;-90
2022/05/27 03:21:35;;;;;;;7.27;4.80;;;13.20;99.90;;;;;;10548363;28;20202;-90
2022/05/27 03:27:23;;;;;;;6.60;4.77;;;13.20;99.90;;;;;;10549235;28;20179;-90
2022/05/27 03:32:41;;;;;;;6.47;5.87;;;13.30;99.90;;;;;;10550012;28;20216;-90
2022/05/27 03:38:08;;;;;;;7.47;5.10;;;13.30;99.90;;;;;;10544934;28;20217;-90
2022/05/27 03:43:11;;;;;;;8.87;6.20;;;13.50;99.90;;;;;;10549623;28;20268;-90
2022/05/27 03:48:15;;;;;;;7.03;6.13;;;13.30;99.90;;;;;;10545084;28;20213;-90
2022/05/27 03:53:18;;;;;;;7.63;6.83;;;13.70;99.90;;;;;;10547673;28;20178;-90
2022/05/27 03:58:21;;;;;;;8.60;7.73;;;14.30;99.90;;;;;;10543133;28;20209;-89
2022/05/27 04:03:23;;;;;;;5.70;5.13;;;14.70;99.90;;;;;;10502724;28;20179;-89
2022/05/27 04:08:26;;;;;;;7.43;6.10;;;17.10;99.90;;;;;;10527692;28;20171;-91
2022/05/27 04:13:28;;;;;;;10.13;5.53;;;17.40;99.90;;;;;;10520744;28;20265;-90
2022/05/27 04:18:31;;;;;;;6.40;5.70;;;17.10;99.90;;;;;;10492023;28;20240;-90
2022/05/27 04:23:34;;;;;;;8.47;6.17;;;18.10;99.90;;;;;;10509071;28;20179;-90
2022/05/27 04:28:36;;;;;;;10.70;6.60;;;18.50;99.90;;;;;;10521410;28;20209;-90
2022/05/27 04:33:39;;;;;;;7.10;5.67;;;19.00;99.90;;;;;;10533323;28;20330;-91
2022/05/27 04:38:42;;;;;;;7.07;6.22;;;19.30;99.90;;;;;;10508818;28;20199;-89
2022/05/27 04:43:45;;;;;;;7.50;6.73;;;19.20;99.90;;;;;;10506972;28;20237;-91
2022/05/27 04:48:49;;;;;;;7.17;6.57;;;19.10;99.90;;;;;;10524628;28;20202;-90
2022/05/27 04:53:51;;;;;;;7.33;6.63;;;19.20;99.90;;;;;;10524809;28;20178;-90
2022/05/27 04:58:54;;;;;;;9.67;5.27;;;19.20;99.90;;;;;;10507986;28;20199;-90
2022/05/27 05:03:56;;;;;;;6.93;6.23;;;18.60;99.90;;;;;;10489031;28;20205;-90
2022/05/27 05:08:59;;;;;;;9.27;8.00;;;18.70;99.90;;;;;;10519121;28;20414;-90
2022/05/27 05:14:04;;;;;;;8.20;7.10;;;18.70;99.90;;;;;;10537433;28;20197;-92
2022/05/27 05:19:07;;;;;;;7.77;5.17;;;18.80;99.90;;;;;;10477943;28;20253;-92
2022/05/27 05:24:09;;;;;;;5.40;4.90;;;18.90;99.90;;;;;;10474272;28;20617;-92
2022/05/27 05:29:12;;;;;;;5.17;4.57;;;18.00;99.90;;;;;;10462630;28;20199;-92
2022/05/27 05:34:14;;;;;;;4.75;4.35;;;19.00;99.90;;;;;;10460899;28;20572;-92
2022/05/27 05:39:17;;;;;;;7.70;4.53;;;19.30;99.90;;;;;;10459164;28;20226;-93
2022/05/27 05:44:19;;;;;;;7.80;5.00;;;17.40;99.90;;;;;;10457804;28;20242;-93
2022/05/27 05:49:23;;;;;;;9.07;5.77;;;16.80;99.90;;;;;;10464672;28;20183;-94
2022/05/27 05:54:27;;;;;;;5.20;4.40;;;18.40;99.90;;;;;;10458527;28;20654;-94
2022/05/27 05:59:31;;;;;;;4.60;4.20;;;18.30;99.90;;;;;;10459520;28;20636;-95
2022/05/27 06:04:34;;;;;;;7.50;4.37;;;17.50;99.90;;;;;;10495638;28;20201;-94
2022/05/27 06:09:42;;;;;;;7.53;4.47;;;16.20;99.90;;;;;;10463349;28;20211;-92
2022/05/27 06:14:44;;;;;;;4.37;3.93;;;17.10;99.90;;;;;;10476062;28;20232;-94
2022/05/27 06:19:47;;;;;;;5.43;4.67;;;18.30;99.90;;;;;;10500602;28;20218;-94
2022/05/27 06:24:49;;;;;;;5.40;4.80;;;17.80;99.90;;;;;;10494484;28;20194;-95
2022/05/27 06:35:14;;;;;;;5.77;4.40;;;19.10;99.90;;;;;;10486739;28;20710;-95
2022/05/27 06:40:17;;;;;;;7.13;4.20;;;19.30;99.90;;;;;;10497364;28;20252;-94
2022/05/27 06:45:20;;;;;;;4.33;3.93;;;18.50;99.90;;;;;;10496816;28;20281;-95
2022/05/27 06:50:23;;;;;;;5.80;4.17;;;18.70;99.90;;;;;;10460135;28;20203;-94
2022/05/27 06:55:30;;;;;;;4.73;4.17;;;18.70;99.90;;;;;;10458956;28;20566;-93
2022/05/27 07:00:33;;;;;;;5.70;4.97;;;18.80;99.90;;;;;;10458736;28;20565;-94
2022/05/27 07:05:36;;;;;;;3.70;3.40;;;18.30;99.90;;;;;;10491557;28;20196;-94
2022/05/27 07:10:39;;;;;;;4.07;3.67;;;18.90;99.90;;;;;;10482558;28;20609;-94
2022/05/27 07:15:43;;;;;;;5.10;3.63;;;19.00;99.90;;;;;;10497467;28;20240;-91
2022/05/27 07:20:45;;;;;;;5.87;2.90;;;18.50;99.90;;;;;;10495326;28;20687;-95
2022/05/27 07:25:48;;;;;;;6.77;3.40;;;19.20;99.90;;;;;;10474194;28;20229;-94
2022/05/27 07:30:50;;;;;;;5.83;3.40;;;18.30;99.90;;;;;;10469474;28;20904;-94
2022/05/27 07:35:53;;;;;;;6.43;3.13;;;19.10;99.90;;;;;;10458953;28;20203;-96
2022/05/27 07:40:56;;;;;;;4.37;3.97;;;18.50;99.90;;;;;;10459039;28;20272;-94
2022/05/27 07:45:59;;;;;;;3.67;3.13;;;19.70;99.90;;;;;;10491582;28;20276;-95
2022/05/27 07:51:02;;;;;;;6.07;3.50;;;19.70;99.90;;;;;;10469407;28;20660;-94
2022/05/27 07:56:05;;;;;;;5.73;3.37;;;;;;;;;;10457807;28;20658;-94
2022/05/27 08:01:08;;;;;;;4.60;3.27;;;20.10;99.90;;;;;;10491645;28;20260;-95
2022/05/27 08:06:12;;;;;;;3.00;2.38;;;20.30;99.90;;;;;;10475357;28;20281;-95
2022/05/27 08:11:14;;;;;;;7.20;3.00;;;19.90;99.90;;;;;;10490713;28;20629;-91
2022/05/27 08:16:17;;;;;;;5.15;2.45;;;19.40;99.90;;;;;;10465131;28;20259;-90
2022/05/27 08:21:19;;;;;;;3.67;3.33;;;19.10;99.90;;;;;;10480195;28;20683;-92
2022/05/27 08:26:22;;;;;;;4.57;3.45;;;19.30;99.90;;;;;;10474212;28;20206;-91
2022/05/27 08:31:24;;;;;;;3.70;3.40;;;17.90;99.90;;;;;;10485981;28;20225;-93
2022/05/27 08:42:13;;;;;;;6.63;3.77;;;19.50;99.90;;;;;;10450490;28;20636;-92
2022/05/27 08:47:24;;;;;;;3.43;2.37;;;19.50;99.90;;;;;;10485959;28;20191;-93
2022/05/27 08:52:37;;;;;;;5.40;4.30;;;19.50;99.90;;;;;;10488611;28;20303;-92
2022/05/27 09:03:04;;;;;;;3.83;3.17;;;19.50;99.90;;;;;;10471133;28;20621;-93
2022/05/27 09:08:17;;;;;;;4.60;3.90;;;19.40;98.20;;;;;;10486724;28;20206;-94
2022/05/27 09:13:43;;;;;;;5.57;4.83;;;19.10;99.90;;;;;;10475584;28;20231;-93
2022/05/27 09:19:15;;;;;;;4.03;3.70;;;19.40;99.90;;;;;;10451240;28;20242;-95
2022/05/27 09:24:49;;;;;;;3.33;3.03;;;19.60;99.90;;;;;;10476010;28;20225;-92
2022/05/27 09:29:59;;;;;;;4.43;3.80;;;18.80;99.90;;;;;;10453271;28;20619;-93
2022/05/27 09:35:06;;;;;;;4.10;2.23;;;19.50;99.90;;;;;;10461641;28;20238;-92
2022/05/27 09:40:40;;;;;;;3.33;1.67;;;19.60;99.70;;;;;;10458638;28;20701;-93
2022/05/27 09:45:43;;;;;;;4.40;3.70;;;19.80;99.40;;;;;;10448500;28;20230;-93
2022/05/27 09:50:47;;;;;;;3.80;3.47;;;19.70;99.40;;;;;;10441978;28;20234;-93
2022/05/27 10:07:05;;;;;;;4.73;4.33;;;19.80;97.80;;;;;;10126362;23;20803;-92
2022/05/27 10:12:08;;;;;;;4.37;4.07;;;20.00;99.00;;;;;;10180992;29;20239;-91
2022/05/27 10:17:13;;;;;;;3.93;3.30;;;20.20;98.40;;;;;;10181342;29;20684;-91
2022/05/27 10:22:26;;;;;;;4.93;4.53;;;19.70;97.70;;;;;;10180950;29;20275;-92
2022/05/27 10:27:35;;;;;;;3.80;3.50;;;19.60;98.40;;;;;;10180313;29;20913;-92
2022/05/27 10:32:43;;;;;;;10.53;3.70;;;19.60;98.50;;;;;;10194489;28;20191;-91
2022/05/27 10:38:33;;;;;;;3.87;2.93;;;19.90;96.50;;;;;;10203659;29;20207;-92
2022/05/27 10:44:10;;;;;;;4.30;3.90;;;20.10;97.00;;;;;;10061370;29;20320;-91
2022/05/27 10:49:43;;;;;;;4.85;2.70;;;20.40;95.70;;;;;;10044389;29;20226;-91
2022/05/27 10:55:09;;;;;;;6.40;2.53;;;19.80;96.40;;;;;;10056668;29;20645;-91
2022/05/27 11:06:05;;;;;;;7.60;3.90;;;19.40;92.90;;;;;;10050516;29;20803;-91
2022/05/27 11:11:39;;;;;;;4.63;4.22;;;19.50;95.20;;;;;;10037488;29;20671;-90
2022/05/27 11:16:50;;;;;;;4.70;4.27;;;20.20;93.90;;;;;;9965768;29;20242;-89
2022/05/27 11:22:15;;;;;;;3.15;2.90;;;20.30;95.10;;;;;;10013542;29;20687;-91
2022/05/27 11:27:51;;;;;;;5.00;4.43;;;19.70;93.20;;;;;;10013996;29;20246;-91
2022/05/27 11:33:03;;;;;;;4.03;2.80;;;20.00;95.10;;;;;;10011289;29;20257;-90
2022/05/27 11:38:17;;;;;;;5.70;2.50;;;20.20;92.70;;;;;;10011478;29;20266;-91
2022/05/27 11:43:29;;;;;;;10.30;1.87;;;20.20;86.60;;;;;;10012071;29;20776;-91
2022/05/27 11:48:58;;;;;;;3.27;1.33;;;19.60;90.00;;;;;;10012322;29;21001;-91
2022/05/27 11:54:29;;;;;;;3.37;3.03;;;19.30;91.30;;;;;;10152380;29;20239;-91
2022/05/27 11:59:38;;;;;;;5.00;1.73;;;19.10;92.70;;;;;;10190531;29;20287;-92
2022/05/27 12:04:56;;;;;;;11.37;1.67;;;18.70;79.40;;;;;;10172225;29;20319;-93
2022/05/27 12:10:13;;;;;;;6.10;2.17;;;18.20;79.80;;;;;;10171335;29;20215;-94
2022/05/27 12:15:34;;;;;;;7.50;2.03;;;18.00;85.80;;;;;;10171354;29;20215;-93
2022/05/27 12:20:38;;;;;;;11.63;2.30;;;18.30;76.90;;;;;;10167780;29;20262;-81
2022/05/27 12:25:48;;;;;;;7.97;1.50;;;18.80;72.60;;;;;;10160976;29;20272;-81
2022/05/27 12:30:51;;;;;;;7.93;2.30;;;20.10;78.40;;;;;;10176454;29;20690;-83
2022/05/27 12:36:34;;;;;;;3.93;1.37;;;19.80;77.60;;;;;;10183070;29;20298;-82
2022/05/27 12:41:39;;;;;;;6.27;3.23;;;18.60;73.40;;;;;;10173467;29;20313;-83
2022/05/27 12:46:45;;;;;;;4.97;1.70;;;18.20;91.60;;;;;;10169481;29;20275;-82
2022/05/27 12:51:49;;;;;;;7.40;3.57;;;19.40;75.80;;;;;;10168096;29;20210;-83
2022/05/27 13:02:19;;;;;;;5.40;2.40;;;19.40;92.40;;;;;;10178335;29;20258;-82
2022/05/27 13:07:28;;;;;;;2.43;1.43;;;19.90;69.20;;;;;;10208132;29;20239;-83
2022/05/27 13:12:46;;;;;;;8.20;1.65;;;19.50;78.50;;;;;;10201681;29;20278;-82
2022/05/27 13:18:12;;;;;;;8.73;2.80;;;19.80;87.00;;;;;;10171315;29;20283;-82
2022/05/27 13:23:15;;;;;;;4.27;1.77;;;20.40;85.60;;;;;;10168458;29;20294;-82
2022/05/27 13:28:51;;;;;;;2.87;1.30;;;18.80;68.90;;;;;;10183086;29;20920;-82
2022/05/27 13:34:00;;;;;;;5.47;2.93;;;17.40;67.20;;;;;;10165986;29;20243;-83
2022/05/27 13:39:10;;;;;;;6.23;1.53;;;18.30;74.40;;;;;;10210725;29;20246;-82
2022/05/27 13:44:16;;;;;;;3.63;1.57;;;18.90;66.60;;;;;;10179610;29;20231;-93
2022/05/27 13:49:39;;;;;;;6.40;1.13;;;19.60;62.80;;;;;;10214607;29;20266;-92
2022/05/27 13:54:43;;;;;;;129.77;10.05;;;19.40;65.50;;;;;;10214559;29;20262;-91
2022/05/27 13:59:53;;;;;;;3.00;1.57;;;18.60;60.10;;;;;;10214761;29;20266;-92
2022/05/27 14:05:09;;;;;;;2.37;1.40;;;19.10;60.80;;;;;;10215796;29;20337;-92
2022/05/27 14:10:24;;;;;;;4.07;0.82;;;19.90;59.30;;;;;;10214159;29;20230;-91
2022/05/27 14:15:31;;;;;;;5.97;1.00;;;19.60;59.80;;;;;;10213681;29;20586;-92
2022/05/27 14:26:05;;;;;;;7.50;1.35;;;20.20;55.90;;;;;;10215144;29;20565;-92
2022/05/27 14:31:18;;;;;;;4.97;1.83;;;20.20;54.80;;;;;;10212914;29;20211;-92
2022/05/27 14:36:23;;;;;;;2.22;1.15;;;20.40;59.80;;;;;;10213126;29;20243;-93
2022/05/27 14:41:38;;;;;;;6.65;1.30;;;20.00;53.70;;;;;;10212874;29;20258;-92
2022/05/27 14:47:01;;;;;;;10.77;1.48;;;19.10;54.60;;;;;;10211999;29;20216;-91
2022/05/27 14:52:30;;;;;;;14.57;1.20;;;19.20;53.00;;;;;;10212099;29;20309;-92
2022/05/27 14:57:42;;;;;;;3.87;1.47;;;19.20;51.90;;;;;;10213643;29;20262;-93
2022/05/27 15:02:45;;;;;;;3.27;0.70;;;18.50;54.00;;;;;;10211177;29;20695;-91
2022/05/27 15:07:50;;;;;;;7.67;1.50;;;18.20;55.00;;;;;;10212579;29;20238;-91
2022/05/27 15:12:54;;;;;;;3.33;1.70;;;17.90;57.70;;;;;;10211248;29;20292;-94
2022/05/27 15:18:14;;;;;;;5.00;1.93;;;18.20;65.70;;;;;;10212599;29;20601;-92
2022/05/27 15:23:27;;;;;;;2.43;0.70;;;18.40;59.40;;;;;;10212368;29;20246;-92
2022/05/27 15:33:53;;;;;;;4.83;1.67;;;17.10;57.90;;;;;;10210861;29;20207;-92
2022/05/27 15:38:57;;;;;;;3.40;1.10;;;18.30;64.40;;;;;;10210251;29;20288;-91
2022/05/27 15:43:59;;;;;;;5.47;1.50;;;17.60;62.10;;;;;;10211857;29;20269;-91
2022/05/27 15:49:02;;;;;;;5.90;0.90;;;16.90;67.60;;;;;;10210908;29;20691;-92
2022/05/27 15:54:06;;;;;;;3.50;2.07;;;15.80;68.70;;;;;;10211398;29;20270;-92
2022/05/27 15:59:09;;;;;;;7.20;1.60;;;16.80;74.60;;;;;;10210675;29;20257;-93
2022/05/27 16:04:11;;;;;;;3.40;1.53;;;16.20;69.20;;;;;;10212059;29;20254;-91
2022/05/27 16:09:14;;;;;;;2.90;0.83;;;15.60;73.50;;;;;;10209329;29;20206;-90
2022/05/27 16:14:16;;;;;;;3.47;1.40;;;15.80;72.00;;;;;;10209805;29;20630;-91
2022/05/27 16:19:19;;;;;;;2.77;1.17;;;16.40;70.60;;;;;;10195304;29;20318;-90
2022/05/27 16:24:21;;;;;;;5.03;0.87;;;17.10;72.50;;;;;;10168466;29;20278;-86
2022/05/27 16:29:24;;;;;;;3.37;0.73;;;16.50;69.20;;;;;;10179088;29;20352;-86
2022/05/27 16:34:26;;;;;;;4.33;0.60;;;16.90;67.60;;;;;;10206854;29;20248;-85
2022/05/27 16:39:29;;;;;;;5.90;1.63;;;16.10;69.30;;;;;;10170257;29;20719;-86
2022/05/27 16:44:32;;;;;;;6.70;1.00;;;16.20;66.40;;;;;;10184412;29;20293;-86
2022/05/27 16:49:34;;;;;;;9.00;1.10;;;16.10;69.30;;;;;;10207510;29;20298;-86
2022/05/27 16:54:37;;;;;;;6.00;1.30;;;15.80;72.20;;;;;;10174866;29;20247;-86
2022/05/27 16:59:39;;;;;;;2.20;1.10;;;16.20;72.00;;;;;;10166648;29;20251;-85
2022/05/27 17:04:42;;;;;;;5.10;1.03;;;17.00;74.80;;;;;;10165434;29;20326;-85
2022/05/27 17:09:46;;;;;;;6.37;1.10;;;16.40;71.40;;;;;;10166935;29;20649;-85
2022/05/27 17:14:48;;;;;;;2.30;1.33;;;16.80;73.00;;;;;;9824089;29;9999816;-85
2022/05/27 17:19:51;;;;;;;9.40;1.30;;;17.00;77.90;;;;;;10165459;29;20251;-85
2022/05/27 17:24:54;;;;;;;3.60;1.50;;;16.10;73.30;;;;;;10139056;29;20630;-85
2022/05/27 17:29:56;;;;;;;4.57;1.67;;;17.50;81.10;;;;;;10145618;29;20306;-85
2022/05/27 17:34:59;;;;;;;2.83;1.45;;;20.00;72.70;;;;;;10138577;29;20295;-86
2022/05/27 17:40:04;;;;;;;1.10;0.47;;;14.20;90.80;;;;;;10159160;29;20258;-86
2022/05/27 17:45:07;;;;;;;0.80;0.40;;;12.10;99.90;;;;;;10164118;29;20390;-85
2022/05/27 17:55:35;;;;;;;1.13;0.40;;;10.40;99.90;;;;;;10162364;29;20684;-85
2022/05/27 18:00:38;;;;;;;3.50;0.63;;;10.60;99.90;;;;;;10157455;29;20247;-84
2022/05/27 18:05:41;;;;;;;2.63;0.47;;;10.50;99.90;;;;;;10158683;29;20255;-85
2022/05/27 18:10:45;;;;;;;1.00;0.50;;;11.70;99.90;;;;;;10157838;29;20248;-84
2022/05/27 18:15:48;;;;;;;2.50;1.17;;;11.80;99.90;;;;;;10163625;29;20235;-85
2022/05/27 18:20:51;;;;;;;2.93;1.20;;;11.70;99.90;;;;;;10170358;29;20314;-86
2022/05/27 18:25:53;;;;;;;0.90;0.30;;;12.30;99.90;;;;;;10167795;29;20235;-86
2022/05/27 18:30:56;;;;;;;3.20;0.50;;;12.20;99.90;;;;;;10169616;29;20292;-86
2022/05/27 18:35:59;;;;;;;1.63;0.87;;;11.80;99.90;;;;;;10152878;29;20242;-86
2022/05/27 18:41:02;;;;;;;5.93;1.30;;;10.70;99.90;;;;;;10168303;29;20362;-86
2022/05/27 18:46:05;;;;;;;2.20;1.20;;;12.00;99.90;;;;;;10163344;29;20235;-86
2022/05/27 18:51:08;;;;;;;2.70;1.27;;;14.40;99.90;;;;;;10164738;29;20247;-87
2022/05/27 18:56:15;;;;;;;2.43;1.90;;;15.10;99.90;;;;;;10168480;29;20228;-86
2022/05/27 19:01:18;;;;;;;2.50;1.83;;;15.50;99.90;;;;;;10170036;29;20317;-86
2022/05/27 19:06:21;;;;;;;2.20;1.23;;;14.20;99.90;;;;;;10168840;29;20258;-86
2022/05/27 19:11:24;;;;;;;3.50;1.10;;;13.80;99.90;;;;;;10172083;29;20263;-85
2022/05/27 19:16:26;;;;;;;2.80;0.60;;;12.20;99.90;;;;;;10177566;29;20228;-86
2022/05/27 19:21:29;;;;;;;1.97;1.20;;;12.10;99.90;;;;;;10172112;29;20255;-86
2022/05/27 19:26:33;;;;;;;3.07;1.73;;;12.60;99.90;;;;;;10169644;29;20294;-86
2022/05/27 19:31:36;;;;;;;2.13;1.20;;;14.60;99.90;;;;;;10198372;29;20274;-86
2022/05/27 19:36:38;;;;;;;1.73;1.07;;;14.00;99.90;;;;;;10198377;29;20234;-86
2022/05/27 19:41:41;;;;;;;4.57;0.90;;;15.50;99.90;;;;;;10169847;29;20685;-85
2022/05/27 19:46:44;;;;;;;2.17;1.30;;;13.20;99.90;;;;;;10180117;29;20237;-86
2022/05/27 19:51:46;;;;;;;2.67;1.57;;;14.50;99.90;;;;;;10168160;29;20247;-86
2022/05/27 19:56:49;;;;;;;2.07;1.17;;;15.60;99.90;;;;;;10170876;29;20243;-86
2022/05/27 20:07:14;;;;;;;1.60;1.00;;;16.20;99.90;;;;;;10187223;29;20261;-86
2022/05/27 20:12:19;;;;;;;2.87;1.30;;;14.60;99.90;;;;;;10179587;29;20227;-86
2022/05/27 20:17:22;;;;;;;1.63;1.27;;;14.00;99.60;;;;;;10171319;29;20242;-86
2022/05/27 20:22:25;;;;;;;1.90;1.10;;;15.20;99.90;;;;;;10169124;29;20719;-86
2022/05/27 20:27:28;;;;;;;3.80;1.33;;;16.20;97.60;;;;;;10167555;29;20286;-86
2022/05/27 20:32:32;;;;;;;1.40;1.30;;;14.10;99.90;;;;;;10168387;29;20279;-86
2022/05/27 20:37:34;;;;;;;6.13;1.27;;;15.40;99.70;;;;;;10167070;29;20294;-86
2022/05/27 20:42:37;;;;;;;1.47;0.87;;;13.30;99.90;;;;;;10167400;29;20291;-86
2022/05/27 20:47:39;;;;;;;2.80;1.87;;;14.00;99.90;;;;;;10168798;29;20235;-85
2022/05/27 20:52:42;;;;;;;2.87;1.60;;;13.50;99.90;;;;;;10174735;29;20286;-85
2022/05/27 20:57:45;;;;;;;2.40;1.70;;;16.10;99.90;;;;;;10174614;29;20258;-85
2022/05/27 21:02:47;;;;;;;1.37;0.80;;;18.50;98.30;;;;;;10171344;29;20308;-85
2022/05/27 21:07:50;;;;;;;1.73;1.60;;;16.70;93.20;;;;;;10198534;29;20224;-85
2022/05/27 21:12:52;;;;;;;3.70;1.47;;;17.00;97.00;;;;;;10198337;29;20247;-86
2022/05/27 21:17:55;;;;;;;1.23;1.13;;;15.90;95.50;;;;;;10173605;29;20235;-87
2022/05/27 21:22:57;;;;;;;2.83;1.00;;;15.80;98.50;;;;;;10174126;29;20286;-86
2022/05/27 21:28:00;;;;;;;1.93;1.40;;;15.20;96.30;;;;;;10182191;29;20696;-87
2022/05/27 21:33:03;;;;;;;2.27;1.40;;;18.60;94.00;;;;;;10167581;29;20234;-87
2022/05/27 21:38:05;;;;;;;2.40;1.60;;;18.20;94.00;;;;;;10166165;29;20306;-88
2022/05/27 21:43:28;;;;;;;3.23;2.03;;;17.80;94.90;;;;;;10197623;29;20725;-88
2022/05/27 21:48:32;;;;;;;2.77;1.87;;;17.50;94.20;;;;;;10139595;29;20605;-88
2022/05/27 21:53:35;;;;;;;2.13;1.30;;;17.30;94.40;;;;;;10173830;29;20266;-88
2022/05/27 21:58:38;;;;;;;1.93;1.50;;;18.70;92.00;;;;;;10189574;29;20294;-87
2022/05/27 22:03:41;;;;;;;2.63;0.80;;;18.80;89.50;;;;;;10194714;29;20270;-87
2022/05/27 22:08:43;;;;;;;1.83;0.77;;;18.40;83.90;;;;;;10211493;29;20294;-87
2022/05/27 22:13:46;;;;;;;5.47;1.73;;;17.00;86.50;;;;;;10214318;29;20235;-86
2022/05/27 22:18:49;;;;;;;1.73;0.90;;;17.60;93.50;;;;;;10190367;29;20238;-87
2022/05/27 22:23:52;;;;;;;2.60;1.37;;;17.00;92.30;;;;;;10196899;29;20315;-87
2022/05/27 22:28:54;;;;;;;2.50;1.47;;;16.60;93.70;;;;;;10197793;29;20211;-87
2022/05/27 22:33:57;;;;;;;2.70;0.73;;;17.20;89.10;;;;;;10213740;29;20230;-86
2022/05/27 22:38:59;;;;;;;2.50;1.20;;;17.00;90.50;;;;;;10173490;29;20236;-87
2022/05/27 22:44:02;;;;;;;1.83;0.97;;;17.80;92.30;;;;;;10211602;29;20254;-87
2022/05/27 22:49:05;;;;;;;2.30;1.20;;;18.00;90.10;;;;;;10210526;29;20267;-86
2022/05/27 22:54:09;;;;;;;2.97;1.00;;;18.10;90.70;;;;;;10209758;29;20245;-87
2022/05/27 22:59:11;;;;;;;5.73;1.50;;;16.80;88.60;;;;;;10210906;29;20317;-87
2022/05/27 23:04:14;;;;;;;1.30;1.20;;;16.60;89.40;;;;;;10184340;29;20329;-85
2022/05/27 23:09:16;;;;;;;1.93;1.07;;;17.30;92.10;;;;;;10172611;29;20667;-86
2022/05/27 23:19:40;;;;;;;1.97;1.10;;;17.70;89.40;;;;;;10202939;29;20242;-86
2022/05/27 23:24:42;;;;;;;2.03;1.20;;;16.30;91.90;;;;;;10207267;29;20269;-86
2022/05/27 23:29:45;;;;;;;3.80;0.93;;;16.70;91.70;;;;;;10212590;29;20629;-86
2022/05/27 23:34:47;;;;;;;1.77;1.13;;;17.70;86.10;;;;;;10211508;29;20239;-86
2022/05/27 23:39:50;;;;;;;6.50;1.43;;;18.10;89.40;;;;;;10172005;29;20652;-86
2022/05/27 23:44:52;;;;;;;2.97;1.43;;;18.50;82.70;;;;;;10183711;29;20293;-86
2022/05/27 23:49:59;;;;;;;2.83;1.02;;;18.90;87.90;;;;;;10170402;29;20251;-86
2022/05/27 23:55:01;;;;;;;4.10;1.30;;;18.30;80.70;;;;;;10213890;29;20560;-86
